21:24
Airports
Links
Donate
Help keep this website running!
PayPal
Bitcoin
METAR
BGJN 212050Z AUTO 00000KT 9999NDV -FZDZ FEW018/// BKN100/// M04/M07 Q1008
Current Weather Conditions at BGJN
20:50:00 21-10-17
Automated station, no observer
Altimeter:29.76 hg
Temp:-4.0°c 25°f
Dew point:-7.0°c 19°f
Wind:0 knots, 0 mph, 0 m/s,
Variable direction
Visibility:Not reported
10000(BKN) Broken
1800(FEW) A few
Past METAR reports
19:50:00 21-10-17
Automated station, no observer
Altimeter:29.76 hg
Temp:-4.0°c 25°f
Dew point:-6.0°c 21°f
Wind:4 knots, 4.6 mph, 2 m/s, from 130°
Visibility:Not reported
10000(BKN) Broken
7500(SCT) Scattered
3000(FEW) A few
BGJN 211950Z AUTO 13004KT 9999NDV -SN FEW030/// SCT075/// BKN100/// M04/M06 Q1008
VFR 19:20:00 21-10-17
Altimeter:29.73 hg
Temp:-4.0°c 25°f
Dew point:-7.0°c 19°f
Wind:3 knots, 3.5 mph, 2 m/s, from 120°
Visibility:6.21 statute miles
10000(BKN) Broken
3200(SCT) Scattered
1000(FEW) A few
BGJN 211920Z 12003KT 9999 FEW010 SCT032 BKN100 M04/M07 Q1007
VFR 18:50:00 21-10-17
Altimeter:29.73 hg
Temp:-3.0°c 27°f
Dew point:-7.0°c 19°f
Wind:3 knots, 3.5 mph, 2 m/s, from 130°
Visibility:6.21 statute miles
10000(BKN) Broken
3200(SCT) Scattered
1000(FEW) A few
BGJN 211850Z 13003KT 9999 FEW010 SCT032 BKN100 M03/M07 Q1007
VFR 17:50:00 21-10-17
Altimeter:29.70 hg
Temp:-3.0°c 27°f
Dew point:-6.0°c 21°f
Wind:2 knots, 2.3 mph, 1 m/s, from 140°
Visibility:6.21 statute miles
10000(BKN) Broken
4600(SCT) Scattered
1000(FEW) A few
BGJN 211750Z 14002KT 9999 FEW010 SCT046 BKN100 M03/M06 Q1006
VFR 16:50:00 21-10-17
Altimeter:29.70 hg
Temp:-4.0°c 25°f
Dew point:-7.0°c 19°f
Wind:2 knots, 2.3 mph, 1 m/s, from 140°
Visibility:6.21 statute miles
10000(BKN) Broken
5000(SCT) Scattered
1000(FEW) A few
BGJN 211650Z 14002KT 9999 FEW010 SCT050 BKN100 M04/M07 Q1006
MVFR 15:50:00 21-10-17
Altimeter:29.68 hg
Temp:-4.0°c 25°f
Dew point:-6.0°c 21°f
Wind:3 knots, 3.5 mph, 2 m/s, from 170°
Visibility:6.21 statute miles
4500(BKN) Broken
3000(BKN) Broken
BGJN 211550Z 17003KT 9999 -SN BKN030 BKN045 M04/M06 Q1005
TAF
TAF BGJN 211701Z 2118/2122 14006KT 9999 SCT050 BKN100 TEMPO 2118/2122 4000 -SN BKN020
Forecast at BGJN
TEMPO 18:00 21-10-17 to 22:00 21-10-17
-SN
Visibility:2.49 statute miles
2000BKN Broken
18:00 21-10-17 to 22:00 21-10-17
Wind:6 Knots from 140°
Visibility:6.21 statute miles
5000SCT Scattered
10000BKN Broken